createdAt,value
2023-01-05T00:00:36.646Z,15.60
2023-01-05T00:03:39.941Z,11.17
2023-01-05T00:06:43.330Z,15.90
2023-01-05T00:09:45.922Z,15.10
2023-01-05T00:13:07.266Z,12.87
2023-01-05T00:16:31.013Z,15.40
2023-01-05T00:19:51.334Z,9.20
2023-01-05T00:22:55.108Z,14.63
2023-01-05T00:25:57.872Z,12.07
2023-01-05T00:29:01.807Z,13.33
2023-01-05T00:32:04.454Z,10.77
2023-01-05T00:35:07.651Z,10.17
2023-01-05T00:38:10.885Z,13.30
2023-01-05T00:41:13.477Z,11.30
2023-01-05T00:44:17.434Z,15.33
2023-01-05T00:47:20.241Z,18.37
2023-01-05T00:50:23.806Z,14.67
2023-01-05T00:53:26.395Z,15.00
2023-01-05T00:56:28.968Z,11.83
2023-01-05T00:59:32.938Z,12.60
2023-01-05T01:02:35.575Z,10.80
2023-01-05T01:05:38.160Z,16.73
2023-01-05T01:08:40.799Z,9.70
2023-01-05T01:11:43.514Z,12.67
2023-01-05T01:14:49.686Z,9.40
2023-01-05T01:17:52.341Z,10.47
2023-01-05T01:20:54.924Z,11.50
2023-01-05T01:23:57.553Z,12.80
2023-01-05T01:27:00.199Z,9.97
2023-01-05T01:30:05.489Z,11.87
2023-01-05T01:33:08.106Z,17.20
2023-01-05T01:36:11.246Z,12.83
2023-01-05T01:39:14.466Z,9.33
2023-01-05T01:42:18.218Z,13.53
2023-01-05T01:45:24.256Z,14.97
2023-01-05T01:48:26.940Z,10.20
2023-01-05T01:51:32.815Z,9.63
2023-01-05T01:54:35.485Z,12.20
2023-01-05T01:57:39.389Z,12.27
2023-01-05T02:00:44.091Z,10.60
2023-01-05T02:03:46.923Z,10.10
2023-01-05T02:06:50.897Z,8.43
2023-01-05T02:09:53.642Z,5.67
2023-01-05T02:13:09.443Z,5.83
2023-01-05T02:16:21.278Z,9.43
2023-01-05T02:20:03.827Z,14.30
2023-01-05T02:23:47.245Z,9.67
2023-01-05T02:27:18.557Z,17.07
2023-01-05T02:31:00.424Z,7.97
2023-01-05T02:34:24.138Z,15.27
2023-01-05T02:37:33.249Z,8.37
2023-01-05T02:40:40.506Z,6.97
2023-01-05T02:43:44.913Z,9.47
2023-01-05T02:46:48.036Z,7.50
2023-01-05T02:49:55.591Z,6.50
2023-01-05T02:53:04.510Z,6.23
2023-01-05T02:56:11.247Z,11.40
2023-01-05T02:59:18.788Z,9.07
2023-01-05T03:02:27.095Z,9.50
2023-01-05T03:05:37.424Z,8.17
2023-01-05T03:08:48.159Z,11.60
2023-01-05T03:12:16.819Z,10.83
2023-01-05T03:15:25.114Z,7.70
2023-01-05T03:18:29.103Z,7.70
2023-01-05T03:21:51.231Z,8.13
2023-01-05T03:25:11.574Z,8.20
2023-01-05T03:28:36.413Z,9.83
2023-01-05T03:32:02.140Z,5.30
2023-01-05T03:35:26.849Z,7.00
2023-01-05T03:38:36.173Z,7.03
2023-01-05T03:41:39.890Z,10.07
2023-01-05T03:44:46.027Z,5.07
2023-01-05T03:47:49.296Z,7.80
2023-01-05T03:50:52.020Z,9.07
2023-01-05T03:53:56.033Z,6.73
2023-01-05T03:56:58.618Z,9.77
2023-01-05T04:00:01.196Z,8.27
2023-01-05T04:03:04.042Z,7.73
2023-01-05T04:06:07.206Z,6.27
2023-01-05T04:09:11.150Z,5.87
2023-01-05T04:12:13.746Z,7.80
2023-01-05T04:15:16.522Z,5.97
2023-01-05T04:18:19.088Z,8.40
2023-01-05T04:21:21.704Z,4.90
2023-01-05T04:24:25.679Z,5.63
2023-01-05T04:27:28.326Z,8.70
2023-01-05T04:30:30.949Z,9.00
2023-01-05T04:33:33.684Z,8.53
2023-01-05T04:36:36.256Z,7.63
2023-01-05T04:39:40.184Z,10.00
2023-01-05T04:42:42.763Z,11.80
2023-01-05T04:45:47.439Z,11.40
2023-01-05T04:48:50.053Z,8.23
2023-01-05T04:51:52.646Z,8.43
2023-01-05T04:54:56.627Z,7.53
2023-01-05T04:57:59.261Z,7.00
2023-01-05T05:01:01.880Z,9.17
2023-01-05T05:04:04.675Z,6.90
2023-01-05T05:07:07.399Z,10.87
2023-01-05T05:10:11.533Z,6.37
2023-01-05T05:13:14.149Z,9.27
2023-01-05T05:16:17.000Z,8.47
2023-01-05T05:19:19.629Z,9.27
2023-01-05T05:22:22.231Z,13.13
2023-01-05T05:25:26.236Z,8.90
2023-01-05T05:28:28.989Z,8.50
2023-01-05T05:31:31.936Z,10.13
2023-01-05T05:34:34.586Z,7.60
2023-01-05T05:37:37.157Z,6.33
2023-01-05T05:40:41.092Z,9.50
2023-01-05T05:43:43.685Z,5.50
2023-01-05T05:46:46.297Z,9.47
2023-01-05T05:49:48.944Z,6.53
2023-01-05T05:52:51.576Z,9.07
2023-01-05T05:55:55.545Z,8.73
2023-01-05T05:59:01.550Z,8.77
2023-01-05T06:02:04.703Z,10.40
2023-01-05T06:05:08.255Z,7.30
2023-01-05T06:08:10.859Z,12.47
2023-01-05T06:11:14.844Z,9.93
2023-01-05T06:14:17.757Z,6.70
2023-01-05T06:17:20.413Z,12.93
2023-01-05T06:20:23.033Z,13.70
2023-01-05T06:23:25.680Z,7.13
2023-01-05T06:26:29.752Z,13.97
2023-01-05T06:29:32.328Z,7.93
2023-01-05T06:32:34.957Z,11.47
2023-01-05T06:35:37.546Z,6.37
2023-01-05T06:38:40.144Z,13.70
2023-01-05T06:41:44.097Z,11.73
2023-01-05T06:44:46.709Z,10.47
2023-01-05T06:47:49.307Z,16.23
2023-01-05T06:50:51.941Z,12.37
2023-01-05T06:53:54.519Z,10.30
2023-01-05T06:56:58.510Z,11.90
2023-01-05T07:00:01.107Z,11.03
2023-01-05T07:03:03.908Z,16.50
2023-01-05T07:06:11.453Z,11.20
2023-01-05T07:09:17.339Z,12.90
2023-01-05T07:12:21.791Z,14.67
2023-01-05T07:15:24.398Z,13.73
2023-01-05T07:18:26.997Z,14.33
2023-01-05T07:21:29.628Z,14.83
2023-01-05T07:24:32.216Z,8.13
2023-01-05T07:27:36.155Z,17.17
2023-01-05T07:30:38.726Z,12.27
2023-01-05T07:33:41.304Z,9.77
2023-01-05T07:36:43.892Z,15.23
2023-01-05T07:39:46.510Z,13.63
2023-01-05T07:42:52.790Z,11.93
2023-01-05T07:45:59.033Z,14.77
2023-01-05T07:49:02.195Z,13.73
2023-01-05T07:52:05.145Z,18.30
2023-01-05T07:55:08.407Z,19.37
2023-01-05T07:58:12.366Z,17.70
2023-01-05T08:01:18.291Z,14.83
2023-01-05T08:04:21.104Z,17.07
2023-01-05T08:07:23.812Z,11.53
2023-01-05T08:10:29.347Z,19.10
2023-01-05T08:13:50.811Z,16.40
2023-01-05T08:16:53.444Z,19.30
2023-01-05T08:19:56.188Z,17.47
2023-01-05T08:22:58.840Z,24.73
2023-01-05T08:26:06.210Z,14.13
2023-01-05T08:29:10.519Z,15.77
2023-01-05T08:32:13.140Z,18.73
2023-01-05T08:35:15.990Z,13.17
2023-01-05T08:38:18.564Z,19.93
2023-01-05T08:41:22.339Z,18.03
2023-01-05T08:44:26.275Z,12.47
2023-01-05T08:47:28.862Z,16.20
2023-01-05T08:50:31.710Z,13.53
2023-01-05T08:53:35.474Z,17.03
2023-01-05T08:56:39.245Z,24.13
2023-01-05T08:59:43.570Z,18.07
2023-01-05T09:02:46.324Z,22.37
2023-01-05T09:05:49.109Z,15.47
2023-01-05T09:08:51.699Z,22.17
2023-01-05T09:11:54.303Z,18.17
2023-01-05T09:14:58.296Z,15.97
2023-01-05T09:18:00.911Z,12.97
2023-01-05T09:21:04.010Z,13.77
2023-01-05T09:24:07.377Z,13.37
2023-01-05T09:27:10.660Z,11.30
2023-01-05T09:30:17.361Z,15.77
2023-01-05T09:33:20.096Z,11.57
2023-01-05T09:36:22.676Z,16.20
2023-01-05T09:39:25.450Z,15.83
2023-01-05T09:42:30.914Z,17.13
2023-01-05T09:45:34.908Z,18.63
2023-01-05T09:48:41.968Z,12.17
2023-01-05T09:51:45.035Z,17.47
2023-01-05T09:54:47.684Z,11.50
2023-01-05T09:57:54.807Z,12.30
2023-01-05T10:01:07.446Z,13.67
2023-01-05T10:04:15.727Z,15.60
2023-01-05T10:07:28.022Z,19.33
2023-01-05T10:10:44.456Z,17.47
2023-01-05T10:13:57.595Z,9.30
2023-01-05T10:17:38.620Z,18.00
2023-01-05T10:20:32.717Z,21.40
2023-01-05T10:23:56.964Z,17.13
2023-01-05T10:30:44.300Z,12.67
2023-01-05T10:33:55.837Z,16.50
2023-01-05T10:37:14.062Z,12.00
2023-01-05T10:40:28.297Z,19.97
2023-01-05T10:43:46.521Z,14.87
2023-01-05T10:46:52.637Z,12.80
2023-01-05T10:49:57.393Z,13.07
2023-01-05T10:53:09.081Z,12.53
2023-01-05T10:56:15.806Z,15.53
2023-01-05T10:59:18.513Z,18.10
2023-01-05T11:02:21.377Z,12.60
2023-01-05T11:05:33.310Z,15.13
2023-01-05T11:08:37.207Z,14.97
2023-01-05T11:11:41.019Z,16.13
2023-01-05T11:14:46.054Z,20.00
2023-01-05T11:17:49.121Z,13.70
2023-01-05T11:21:12.293Z,10.73
2023-01-05T11:24:29.550Z,8.93
2023-01-05T11:27:32.160Z,10.67
2023-01-05T11:30:35.670Z,8.57
2023-01-05T11:33:39.618Z,10.83
2023-01-05T11:36:44.851Z,13.80
2023-01-05T11:39:50.997Z,12.00
2023-01-05T11:42:54.017Z,12.90
2023-01-05T11:45:59.612Z,12.07
2023-01-05T11:49:02.352Z,13.67
2023-01-05T11:52:26.215Z,8.97
2023-01-05T11:55:35.002Z,15.77
2023-01-05T11:58:43.847Z,12.30
2023-01-05T12:02:00.945Z,13.20
2023-01-05T12:05:22.672Z,18.23
2023-01-05T12:08:32.085Z,14.60
2023-01-05T12:11:41.193Z,19.77
2023-01-05T12:15:08.804Z,22.63
2023-01-05T12:18:25.491Z,14.13
2023-01-05T12:21:32.478Z,12.80
2023-01-05T12:24:48.825Z,11.07
2023-01-05T12:28:12.022Z,10.47
2023-01-05T12:35:42.485Z,15.50
2023-01-05T12:38:53.474Z,15.07
2023-01-05T12:42:18.617Z,7.13
2023-01-05T12:45:39.864Z,12.17
2023-01-05T12:48:48.196Z,12.13
2023-01-05T12:51:57.097Z,8.80
2023-01-05T12:55:06.949Z,10.00
2023-01-05T12:58:16.811Z,14.13
2023-01-05T13:01:24.728Z,16.07
2023-01-05T13:04:46.306Z,10.43
2023-01-05T13:07:54.979Z,11.23
2023-01-05T13:11:03.653Z,17.87
2023-01-05T13:14:17.510Z,12.03
2023-01-05T13:17:26.644Z,14.83
2023-01-05T13:20:36.927Z,9.57
2023-01-05T13:23:43.836Z,10.80
2023-01-05T13:26:46.437Z,16.50
2023-01-05T13:29:54.218Z,11.63
2023-01-05T13:33:14.388Z,6.77
2023-01-05T13:36:31.434Z,15.53
2023-01-05T13:39:57.322Z,14.23
2023-01-05T13:43:19.732Z,10.10
2023-01-05T13:46:49.702Z,8.60
2023-01-05T13:50:15.915Z,5.33
2023-01-05T13:53:24.659Z,6.87
2023-01-05T13:56:30.061Z,6.07
2023-01-05T13:59:44.210Z,7.03
2023-01-05T14:03:02.001Z,6.77
2023-01-05T14:06:09.563Z,5.77
2023-01-05T14:09:17.591Z,5.83
2023-01-05T14:12:46.331Z,3.77
2023-01-05T14:15:48.975Z,7.07
2023-01-05T14:18:53.942Z,5.70
2023-01-05T14:22:05.849Z,8.40
2023-01-05T14:25:47.802Z,14.23
2023-01-05T14:28:50.430Z,4.87
2023-01-05T14:31:53.102Z,15.77
2023-01-05T14:35:01.549Z,7.60
2023-01-05T14:38:06.831Z,7.50
2023-01-05T14:41:26.608Z,6.70
2023-01-05T14:44:34.616Z,6.20
2023-01-05T14:47:42.072Z,4.43
2023-01-05T14:50:46.032Z,7.50
2023-01-05T14:53:50.560Z,8.27
2023-01-05T14:57:26.350Z,6.50
2023-01-05T15:00:52.811Z,9.97
2023-01-05T15:04:01.586Z,6.63
2023-01-05T15:07:32.709Z,15.57
2023-01-05T15:11:00.257Z,13.50
2023-01-05T15:14:34.984Z,7.90
2023-01-05T15:18:25.378Z,9.33
2023-01-05T15:21:48.956Z,8.93
2023-01-05T15:25:07.103Z,8.23
2023-01-05T15:28:56.001Z,12.00
2023-01-05T15:32:03.015Z,10.13
2023-01-05T15:35:13.483Z,11.43
2023-01-05T15:38:24.263Z,9.20
2023-01-05T15:41:29.632Z,9.37
2023-01-05T15:44:38.110Z,14.17
2023-01-05T15:47:40.934Z,7.70
2023-01-05T15:50:46.947Z,4.87
2023-01-05T15:53:54.981Z,9.67
2023-01-05T15:57:00.660Z,8.33
2023-01-05T16:00:04.238Z,11.50
2023-01-05T16:03:21.233Z,13.27
2023-01-05T16:06:27.419Z,12.63
2023-01-05T16:09:34.976Z,10.37
2023-01-05T16:12:39.007Z,13.77
2023-01-05T16:15:43.242Z,20.20
2023-01-05T16:18:51.467Z,12.67
2023-01-05T16:21:58.706Z,18.37
2023-01-05T16:25:06.649Z,12.33
2023-01-05T16:28:17.305Z,9.27
2023-01-05T16:31:28.111Z,15.30
2023-01-05T16:34:31.478Z,12.77
2023-01-05T16:37:34.075Z,10.87
2023-01-05T16:40:37.808Z,21.63
2023-01-05T16:43:47.908Z,11.67
2023-01-05T16:47:05.820Z,7.63
2023-01-05T16:50:55.149Z,11.33
2023-01-05T16:54:04.841Z,10.00
2023-01-05T16:57:33.619Z,21.37
2023-01-05T17:00:39.823Z,15.57
2023-01-05T17:03:43.327Z,16.03
2023-01-05T17:06:48.349Z,9.70
2023-01-05T17:09:51.424Z,9.13
2023-01-05T17:12:58.784Z,11.93
2023-01-05T17:16:03.861Z,14.10
2023-01-05T17:19:12.766Z,8.37
2023-01-05T17:22:15.389Z,10.17
2023-01-05T17:25:18.192Z,10.13
2023-01-05T17:28:22.139Z,10.27
2023-01-05T17:31:26.581Z,8.23
2023-01-05T17:34:29.359Z,18.73
2023-01-05T17:37:31.953Z,10.10
2023-01-05T17:40:34.792Z,12.10
2023-01-05T17:43:37.418Z,5.87
2023-01-05T17:46:43.562Z,12.13
2023-01-05T17:49:46.467Z,11.67
2023-01-05T17:52:49.185Z,11.00
2023-01-05T17:55:51.792Z,14.27
2023-01-05T17:58:54.429Z,12.27
2023-01-05T18:01:58.510Z,9.00
2023-01-05T18:05:01.130Z,11.37
2023-01-05T18:11:11.261Z,13.57
2023-01-05T18:14:13.901Z,14.83
2023-01-05T18:17:17.892Z,14.03
2023-01-05T18:20:21.463Z,12.63
2023-01-05T18:23:24.412Z,12.10
2023-01-05T18:26:27.031Z,13.67
2023-01-05T18:29:29.641Z,14.47
2023-01-05T18:32:33.830Z,17.60
2023-01-05T18:35:38.551Z,15.57
2023-01-05T18:38:43.376Z,15.57
2023-01-05T18:41:45.979Z,12.67
2023-01-05T18:44:48.558Z,12.33
2023-01-05T18:47:52.517Z,11.03
2023-01-05T18:50:55.156Z,18.03
2023-01-05T18:53:57.763Z,18.17
2023-01-05T18:57:00.367Z,18.03
2023-01-05T19:00:03.669Z,19.90
2023-01-05T19:03:07.767Z,18.77
2023-01-05T19:06:13.881Z,22.30
2023-01-05T19:09:17.560Z,20.33
2023-01-05T19:12:20.259Z,19.30
2023-01-05T19:15:22.856Z,24.73
2023-01-05T19:18:26.801Z,24.57
2023-01-05T19:21:31.357Z,24.83
2023-01-05T19:24:35.243Z,25.47
2023-01-05T19:27:37.847Z,19.60
2023-01-05T19:30:40.431Z,17.93
2023-01-05T19:33:44.795Z,16.87
2023-01-05T19:36:48.137Z,20.27
2023-01-05T19:39:50.724Z,16.23
2023-01-05T19:42:53.363Z,20.33
2023-01-05T19:45:59.144Z,20.60
2023-01-05T19:49:03.297Z,27.33
2023-01-05T19:52:06.008Z,23.83
2023-01-05T19:55:10.613Z,19.90
2023-01-05T19:58:13.273Z,16.13
2023-01-05T20:01:17.045Z,20.73
2023-01-05T20:04:21.208Z,22.80
2023-01-05T20:07:23.829Z,23.47
2023-01-05T20:10:26.441Z,20.03
2023-01-05T20:13:29.009Z,19.33
2023-01-05T20:16:32.315Z,20.87
2023-01-05T20:19:37.561Z,20.07
2023-01-05T20:22:40.867Z,19.83
2023-01-05T20:25:43.435Z,17.67
2023-01-05T20:28:47.121Z,18.47
2023-01-05T20:31:54.718Z,15.93
2023-01-05T20:35:00.722Z,17.97
2023-01-05T20:38:03.343Z,22.57
2023-01-05T20:41:14.109Z,14.27
2023-01-05T20:44:19.874Z,14.20
2023-01-05T20:47:22.455Z,18.20
2023-01-05T20:50:26.571Z,21.47
2023-01-05T20:53:29.175Z,20.77
2023-01-05T20:56:38.338Z,16.67
2023-01-05T20:59:41.259Z,19.90
2023-01-05T21:02:45.204Z,14.80
2023-01-05T21:05:49.277Z,14.70
2023-01-05T21:08:52.469Z,20.23
2023-01-05T21:11:55.090Z,20.70
2023-01-05T21:14:57.662Z,14.27
2023-01-05T21:18:00.252Z,13.13
2023-01-05T21:21:06.156Z,17.53
2023-01-05T21:24:09.089Z,13.47
2023-01-05T21:27:11.875Z,17.83
2023-01-05T21:30:14.674Z,9.43
2023-01-05T21:33:17.324Z,18.20
2023-01-05T21:36:24.247Z,14.47
2023-01-05T21:39:28.359Z,14.57
2023-01-05T21:42:45.097Z,17.47
2023-01-05T21:45:47.724Z,13.10
2023-01-05T21:48:50.311Z,13.63
2023-01-05T21:52:11.969Z,19.20
2023-01-05T21:55:32.444Z,15.70
2023-01-05T21:58:35.969Z,15.77
2023-01-05T22:01:39.892Z,13.73
2023-01-05T22:04:43.294Z,17.97
2023-01-05T22:07:47.463Z,10.47
2023-01-05T22:10:55.139Z,14.43
2023-01-05T22:13:57.719Z,10.10
2023-01-05T22:17:00.928Z,15.37
2023-01-05T22:20:03.528Z,12.57
2023-01-05T22:23:07.515Z,7.50
2023-01-05T22:26:12.255Z,14.17
2023-01-05T22:29:14.904Z,13.07
2023-01-05T22:32:17.484Z,15.03
2023-01-05T22:35:20.094Z,11.13
2023-01-05T22:38:24.022Z,11.43
2023-01-05T22:41:29.808Z,14.60
2023-01-05T22:44:32.404Z,9.80
2023-01-05T22:47:35.065Z,14.93
2023-01-05T22:50:37.665Z,11.63
2023-01-05T22:53:42.601Z,12.97
2023-01-05T22:56:45.184Z,13.30
2023-01-05T22:59:47.798Z,12.33
2023-01-05T23:02:50.429Z,11.67
2023-01-05T23:05:54.265Z,15.23
2023-01-05T23:08:59.275Z,12.47
2023-01-05T23:12:02.201Z,11.80
2023-01-05T23:15:05.410Z,8.13
2023-01-05T23:18:07.983Z,10.97
2023-01-05T23:21:12.493Z,9.40
2023-01-05T23:24:16.689Z,9.00
2023-01-05T23:27:19.259Z,11.27
2023-01-05T23:30:21.880Z,9.27
2023-01-05T23:33:26.320Z,10.73
2023-01-05T23:36:29.005Z,12.60
2023-01-05T23:39:32.963Z,5.97
2023-01-05T23:42:46.160Z,6.80
2023-01-05T23:45:49.733Z,9.17
2023-01-05T23:48:53.267Z,9.60
2023-01-05T23:51:55.858Z,10.87
2023-01-05T23:54:59.823Z,7.97
2023-01-05T23:58:02.759Z,5.97
